createdAt,value
2022-08-03T00:00:24.207Z,1.40
2022-08-03T00:02:50.926Z,1.33
2022-08-03T00:05:17.622Z,1.52
2022-08-03T00:07:44.218Z,1.65
2022-08-03T00:10:11.302Z,1.67
2022-08-03T00:12:37.879Z,1.30
2022-08-03T00:15:08.243Z,1.55
2022-08-03T00:17:52.960Z,1.67
2022-08-03T00:20:21.780Z,1.83
2022-08-03T00:22:48.895Z,1.35
2022-08-03T00:25:15.707Z,1.70
2022-08-03T00:27:42.292Z,1.75
2022-08-03T00:30:09.204Z,1.95
2022-08-03T00:32:35.751Z,1.75
2022-08-03T00:35:04.369Z,1.58
2022-08-03T00:37:41.443Z,1.35
2022-08-03T00:40:11.120Z,1.60
2022-08-03T00:42:50.747Z,1.75
2022-08-03T00:45:39.662Z,1.98
2022-08-03T00:48:29.440Z,1.25
2022-08-03T00:50:55.100Z,1.55
2022-08-03T00:53:21.919Z,1.48
2022-08-03T00:55:48.459Z,1.60
2022-08-03T00:58:15.192Z,1.27
2022-08-03T01:00:42.337Z,1.38
2022-08-03T01:03:10.386Z,1.52
2022-08-03T01:05:55.702Z,1.40
2022-08-03T01:08:47.849Z,1.55
2022-08-03T01:11:35.634Z,1.60
2022-08-03T01:14:32.955Z,1.95
2022-08-03T01:17:06.941Z,1.40
2022-08-03T01:19:54.625Z,1.30
2022-08-03T01:22:37.419Z,1.52
2022-08-03T01:25:04.041Z,1.50
2022-08-03T01:27:48.610Z,1.60
2022-08-03T01:30:15.315Z,1.75
2022-08-03T01:32:59.744Z,1.67
2022-08-03T01:35:47.675Z,1.83
2022-08-03T01:38:27.748Z,1.85
2022-08-03T01:40:56.330Z,2.03
2022-08-03T01:44:26.218Z,1.65
2022-08-03T01:46:14.685Z,1.70
2022-08-03T01:48:43.059Z,1.60
2022-08-03T01:51:10.694Z,1.50
2022-08-03T01:53:38.944Z,1.33
2022-08-03T01:56:06.628Z,1.77
2022-08-03T01:58:35.462Z,1.70
2022-08-03T02:01:03.043Z,1.63
2022-08-03T02:03:30.031Z,2.15
2022-08-03T02:06:55.572Z,1.50
2022-08-03T02:08:45.048Z,1.77
2022-08-03T02:11:12.577Z,1.85
2022-08-03T02:13:39.675Z,1.70
2022-08-03T02:16:07.305Z,1.80
2022-08-03T02:18:34.275Z,1.52
2022-08-03T02:21:11.114Z,1.58
2022-08-03T02:23:38.387Z,1.63
2022-08-03T02:26:07.399Z,1.67
2022-08-03T02:28:40.098Z,2.33
2022-08-03T02:31:13.109Z,1.10
2022-08-03T02:33:44.265Z,1.67
2022-08-03T02:36:12.008Z,1.50
2022-08-03T02:38:41.847Z,1.65
2022-08-03T02:41:16.947Z,1.88
2022-08-03T02:44:05.595Z,1.40
2022-08-03T02:46:34.431Z,1.48
2022-08-03T02:49:40.995Z,1.63
2022-08-03T02:51:50.872Z,1.80
2022-08-03T02:54:19.364Z,1.45
2022-08-03T02:56:47.269Z,1.40
2022-08-03T02:59:14.771Z,1.75
2022-08-03T03:01:41.817Z,1.55
2022-08-03T03:04:10.114Z,1.80
2022-08-03T03:06:40.163Z,1.42
2022-08-03T03:09:07.231Z,1.70
2022-08-03T03:11:36.502Z,1.50
2022-08-03T03:14:03.389Z,1.55
2022-08-03T03:16:30.762Z,1.88
2022-08-03T03:18:57.611Z,1.63
2022-08-03T03:21:24.291Z,1.42
2022-08-03T03:23:51.055Z,1.50
2022-08-03T03:26:18.046Z,1.73
2022-08-03T03:28:44.993Z,1.67
2022-08-03T03:31:11.665Z,1.60
2022-08-03T03:33:38.662Z,1.60
2022-08-03T03:36:06.478Z,2.28
2022-08-03T03:38:33.412Z,2.40
2022-08-03T03:41:00.216Z,1.80
2022-08-03T03:43:27.026Z,2.20
2022-08-03T03:45:54.995Z,1.73
2022-08-03T03:48:21.830Z,1.42
2022-08-03T03:50:49.591Z,1.60
2022-08-03T03:53:16.240Z,1.55
2022-08-03T03:55:58.925Z,1.60
2022-08-03T03:58:28.803Z,1.35
2022-08-03T04:00:55.457Z,1.65
2022-08-03T04:03:22.141Z,1.77
2022-08-03T04:06:07.225Z,1.80
2022-08-03T04:08:52.452Z,1.67
2022-08-03T04:11:31.720Z,1.90
2022-08-03T04:14:07.940Z,1.75
2022-08-03T04:16:39.724Z,1.77
2022-08-03T04:19:11.477Z,1.90
2022-08-03T04:21:41.727Z,1.42
2022-08-03T04:24:09.579Z,1.73
2022-08-03T04:26:37.686Z,1.42
2022-08-03T04:29:06.310Z,1.80
2022-08-03T04:31:33.766Z,1.42
2022-08-03T04:34:00.578Z,1.63
2022-08-03T04:36:32.155Z,1.70
2022-08-03T04:39:06.974Z,1.95
2022-08-03T04:42:07.417Z,1.73
2022-08-03T04:44:28.486Z,1.52
2022-08-03T04:46:56.506Z,1.70
2022-08-03T04:49:23.170Z,2.17
2022-08-03T04:51:50.338Z,1.70
2022-08-03T04:54:16.954Z,2.00
2022-08-03T04:56:43.820Z,1.80
2022-08-03T04:59:10.964Z,1.98
2022-08-03T05:01:37.651Z,1.95
2022-08-03T05:04:04.396Z,2.15
2022-08-03T05:06:30.943Z,2.15
2022-08-03T05:08:57.456Z,2.20
2022-08-03T05:11:24.003Z,2.15
2022-08-03T05:13:50.641Z,2.53
2022-08-03T05:16:17.236Z,2.35
2022-08-03T05:18:44.204Z,1.88
2022-08-03T05:21:14.062Z,2.15
2022-08-03T05:23:41.419Z,2.28
2022-08-03T05:26:08.013Z,2.22
2022-08-03T05:28:34.563Z,2.33
2022-08-03T05:31:01.111Z,2.38
2022-08-03T05:33:27.675Z,2.00
2022-08-03T05:36:02.595Z,2.45
2022-08-03T05:38:35.024Z,2.70
2022-08-03T05:41:23.511Z,2.40
2022-08-03T05:43:53.692Z,2.38
2022-08-03T05:46:21.176Z,2.10
2022-08-03T05:48:48.108Z,2.67
2022-08-03T05:51:14.861Z,2.38
2022-08-03T05:53:42.793Z,2.10
2022-08-03T05:56:14.203Z,2.15
2022-08-03T05:58:47.254Z,2.28
2022-08-03T06:01:15.133Z,2.53
2022-08-03T06:03:41.932Z,2.50
2022-08-03T06:06:08.574Z,2.58
2022-08-03T06:08:35.547Z,3.13
2022-08-03T06:11:02.149Z,2.08
2022-08-03T06:13:28.840Z,1.95
2022-08-03T06:15:55.388Z,2.17
2022-08-03T06:18:21.981Z,1.92
2022-08-03T06:20:49.421Z,2.15
2022-08-03T06:23:18.086Z,2.40
2022-08-03T06:25:45.567Z,2.42
2022-08-03T06:28:35.280Z,1.58
2022-08-03T06:31:01.010Z,1.88
2022-08-03T06:34:31.577Z,2.30
2022-08-03T06:36:14.380Z,1.83
2022-08-03T06:38:40.946Z,1.90
2022-08-03T06:41:07.466Z,1.80
2022-08-03T06:43:37.772Z,1.77
2022-08-03T06:46:05.494Z,1.90
2022-08-03T06:48:32.457Z,2.15
2022-08-03T06:50:59.224Z,1.98
2022-08-03T06:53:25.878Z,1.63
2022-08-03T06:55:54.944Z,1.30
2022-08-03T06:58:22.097Z,1.80
2022-08-03T07:00:48.658Z,1.67
2022-08-03T07:03:15.238Z,2.00
2022-08-03T07:05:42.998Z,1.80
2022-08-03T07:08:10.042Z,1.70
2022-08-03T07:10:37.001Z,1.58
2022-08-03T07:13:04.076Z,1.75
2022-08-03T07:15:38.301Z,1.33
2022-08-03T07:18:17.722Z,1.40
2022-08-03T07:20:55.390Z,1.38
2022-08-03T07:23:21.933Z,1.88
2022-08-03T07:25:48.455Z,0.95
2022-08-03T07:28:15.401Z,1.13
2022-08-03T07:30:41.949Z,1.20
2022-08-03T07:33:08.499Z,1.10
2022-08-03T07:35:35.100Z,1.00
2022-08-03T07:38:01.668Z,1.00
2022-08-03T07:40:31.630Z,1.42
2022-08-03T07:42:58.924Z,1.02
2022-08-03T07:45:26.600Z,1.15
2022-08-03T07:47:54.113Z,1.13
2022-08-03T07:50:21.373Z,0.82
2022-08-03T07:52:48.197Z,0.90
2022-08-03T07:55:18.229Z,0.80
2022-08-03T07:57:44.842Z,0.70
2022-08-03T08:00:17.362Z,0.90
2022-08-03T08:02:44.441Z,1.15
2022-08-03T08:05:12.513Z,0.90
2022-08-03T08:07:39.570Z,1.10
2022-08-03T08:10:07.871Z,0.93
2022-08-03T08:12:34.460Z,1.30
2022-08-03T08:15:01.259Z,1.35
2022-08-03T08:17:27.809Z,1.20
2022-08-03T08:19:54.386Z,1.13
2022-08-03T08:22:29.791Z,1.60
2022-08-03T08:24:58.185Z,1.40
2022-08-03T08:27:24.771Z,1.40
2022-08-03T08:29:55.193Z,1.40
2022-08-03T08:32:24.243Z,1.20
2022-08-03T08:34:51.044Z,1.33
2022-08-03T08:37:17.713Z,1.67
2022-08-03T08:39:44.273Z,1.02
2022-08-03T08:42:10.883Z,1.20
2022-08-03T08:44:37.450Z,1.40
2022-08-03T08:47:04.749Z,1.23
2022-08-03T08:49:33.037Z,1.40
2022-08-03T08:52:01.103Z,1.52
2022-08-03T08:54:29.928Z,0.93
2022-08-03T08:56:57.507Z,1.00
2022-08-03T08:59:24.472Z,1.30
2022-08-03T09:01:51.041Z,1.40
2022-08-03T09:04:17.887Z,1.30
2022-08-03T09:06:58.576Z,1.17
2022-08-03T09:10:10.745Z,1.10
2022-08-03T09:12:40.611Z,1.20
2022-08-03T09:15:25.504Z,1.10
2022-08-03T09:17:55.594Z,1.05
2022-08-03T09:20:24.480Z,0.95
2022-08-03T09:22:59.916Z,1.30
2022-08-03T09:25:30.835Z,1.40
2022-08-03T09:28:06.637Z,1.00
2022-08-03T09:30:35.102Z,1.20
2022-08-03T09:33:06.607Z,1.10
2022-08-03T09:38:26.370Z,0.93
2022-08-03T09:40:59.012Z,1.17
2022-08-03T09:43:27.655Z,1.10
2022-08-03T09:46:03.772Z,1.13
2022-08-03T09:48:31.714Z,1.13
2022-08-03T09:51:12.485Z,1.10
2022-08-03T09:53:58.471Z,0.93
2022-08-03T09:56:40.312Z,1.05
2022-08-03T09:59:07.007Z,1.27
2022-08-03T10:01:35.260Z,1.25
2022-08-03T10:04:03.900Z,0.85
2022-08-03T10:06:31.199Z,0.90
2022-08-03T10:09:10.676Z,1.20
2022-08-03T10:11:41.799Z,0.80
2022-08-03T10:14:11.197Z,0.93
2022-08-03T10:16:39.917Z,1.00
2022-08-03T10:19:08.125Z,0.80
2022-08-03T10:21:36.124Z,1.10
2022-08-03T10:24:05.583Z,1.13
2022-08-03T10:26:36.941Z,0.60
2022-08-03T10:29:12.910Z,0.95
2022-08-03T10:31:57.874Z,1.00
2022-08-03T10:34:27.225Z,0.88
2022-08-03T10:36:57.416Z,0.90
2022-08-03T10:39:28.206Z,1.00
2022-08-03T10:41:56.734Z,1.30
2022-08-03T10:44:24.812Z,0.98
2022-08-03T10:46:51.631Z,0.82
2022-08-03T10:49:33.595Z,1.45
2022-08-03T10:52:02.618Z,1.35
2022-08-03T10:55:03.231Z,1.10
2022-08-03T10:57:47.437Z,1.02
2022-08-03T11:00:24.554Z,0.90
2022-08-03T11:03:08.673Z,0.80
2022-08-03T11:05:45.741Z,1.45
2022-08-03T11:08:28.033Z,0.90
2022-08-03T11:11:00.397Z,1.20
2022-08-03T11:13:30.912Z,0.90
2022-08-03T11:16:02.992Z,1.10
2022-08-03T11:18:31.536Z,0.80
2022-08-03T11:20:59.913Z,0.90
2022-08-03T11:24:04.463Z,0.73
2022-08-03T11:26:33.410Z,0.95
2022-08-03T11:29:27.378Z,0.80
2022-08-03T11:31:54.009Z,0.93
2022-08-03T11:34:20.658Z,0.90
2022-08-03T11:37:19.806Z,0.88
2022-08-03T11:42:22.910Z,0.60
2022-08-03T11:44:54.031Z,0.70
2022-08-03T11:47:21.754Z,0.80
2022-08-03T11:49:49.351Z,0.93
2022-08-03T11:52:17.428Z,0.85
2022-08-03T11:54:44.281Z,0.90
2022-08-03T11:57:10.888Z,1.02
2022-08-03T11:59:38.838Z,1.25
2022-08-03T12:02:12.466Z,0.93
2022-08-03T12:04:52.135Z,0.90
2022-08-03T12:08:02.214Z,0.90
2022-08-03T12:10:11.997Z,1.10
2022-08-03T12:12:43.300Z,1.05
2022-08-03T12:15:13.085Z,0.90
2022-08-03T12:17:41.303Z,0.90
2022-08-03T12:20:09.961Z,0.97
2022-08-03T12:22:40.447Z,0.98
2022-08-03T12:25:08.745Z,0.90
2022-08-03T12:27:35.966Z,0.80
2022-08-03T12:30:04.018Z,0.85
2022-08-03T12:32:31.150Z,1.10
2022-08-03T12:35:01.653Z,1.00
2022-08-03T12:37:29.273Z,1.30
2022-08-03T12:40:09.146Z,1.20
2022-08-03T12:42:38.615Z,1.10
2022-08-03T12:45:21.554Z,0.87
2022-08-03T12:47:59.374Z,0.88
2022-08-03T12:50:32.809Z,0.95
2022-08-03T12:53:00.909Z,0.80
2022-08-03T12:55:57.560Z,0.80
2022-08-03T12:58:35.182Z,0.75
2022-08-03T13:01:05.258Z,0.98
2022-08-03T13:03:49.612Z,1.00
2022-08-03T13:06:19.610Z,1.02
2022-08-03T13:08:48.277Z,0.93
2022-08-03T13:11:52.532Z,1.00
2022-08-03T13:14:10.619Z,1.00
2022-08-03T13:16:43.288Z,1.15
2022-08-03T13:19:15.620Z,1.08
2022-08-03T13:21:53.524Z,1.15
2022-08-03T13:24:30.542Z,1.30
2022-08-03T13:26:58.753Z,1.20
2022-08-03T13:29:25.294Z,1.13
2022-08-03T13:31:51.878Z,1.40
2022-08-03T13:34:22.901Z,1.30
2022-08-03T13:39:57.327Z,1.10
2022-08-03T13:42:25.625Z,1.05
2022-08-03T13:44:52.287Z,1.10
2022-08-03T13:47:19.427Z,1.10
2022-08-03T13:49:54.210Z,0.80
2022-08-03T13:52:29.934Z,0.98
2022-08-03T13:54:56.501Z,1.00
2022-08-03T13:58:03.346Z,1.13
2022-08-03T14:00:10.371Z,0.93
2022-08-03T14:02:37.206Z,0.90
2022-08-03T14:05:03.990Z,0.70
2022-08-03T14:07:30.584Z,0.90
2022-08-03T14:09:57.121Z,0.98
2022-08-03T14:12:23.775Z,1.00
2022-08-03T14:14:50.309Z,1.30
2022-08-03T14:17:16.985Z,0.90
2022-08-03T14:19:53.324Z,0.93
2022-08-03T14:22:21.455Z,1.00
2022-08-03T14:24:49.157Z,1.02
2022-08-03T14:27:16.408Z,0.90
2022-08-03T14:29:42.987Z,0.93
2022-08-03T14:32:13.180Z,1.25
2022-08-03T14:34:40.975Z,1.00
2022-08-03T14:37:07.996Z,1.10
2022-08-03T14:42:21.614Z,0.82
2022-08-03T14:44:48.237Z,1.10
2022-08-03T14:47:14.900Z,1.00
2022-08-03T14:50:37.374Z,1.30
2022-08-03T14:52:28.616Z,0.70
2022-08-03T14:54:55.203Z,1.20
2022-08-03T14:57:22.020Z,1.25
2022-08-03T14:59:56.208Z,1.20
2022-08-03T15:02:24.515Z,1.50
2022-08-03T15:04:51.494Z,1.10
2022-08-03T15:07:18.649Z,1.67
2022-08-03T15:09:45.406Z,1.10
2022-08-03T15:12:12.039Z,0.90
2022-08-03T15:14:38.761Z,1.00
2022-08-03T15:17:05.538Z,1.33
2022-08-03T15:20:00.774Z,0.98
2022-08-03T15:22:20.696Z,1.00
2022-08-03T15:24:51.745Z,1.00
2022-08-03T15:27:18.683Z,1.08
2022-08-03T15:30:05.795Z,1.52
2022-08-03T15:32:35.444Z,0.88
2022-08-03T15:35:02.266Z,0.80
2022-08-03T15:37:28.999Z,1.23
2022-08-03T15:39:59.938Z,1.00
2022-08-03T15:42:29.214Z,1.00
2022-08-03T15:44:55.777Z,1.00
2022-08-03T15:47:22.578Z,1.00
2022-08-03T15:49:49.369Z,0.80
2022-08-03T15:52:17.111Z,1.08
2022-08-03T15:54:43.762Z,0.98
2022-08-03T15:57:10.311Z,0.80
2022-08-03T15:59:37.041Z,0.70
2022-08-03T16:02:04.131Z,0.93
2022-08-03T16:04:30.791Z,0.82
2022-08-03T16:06:57.310Z,1.10
2022-08-03T16:09:43.045Z,0.57
2022-08-03T16:12:11.862Z,0.98
2022-08-03T16:14:53.480Z,0.80
2022-08-03T16:17:21.485Z,1.00
2022-08-03T16:19:48.419Z,1.00
2022-08-03T16:22:15.010Z,0.60
2022-08-03T16:24:41.602Z,0.93
2022-08-03T16:27:17.541Z,1.15
2022-08-03T16:29:54.884Z,0.80
2022-08-03T16:32:21.511Z,0.80
2022-08-03T16:34:48.273Z,0.88
2022-08-03T16:37:37.686Z,0.93
2022-08-03T16:40:02.125Z,0.80
2022-08-03T16:42:28.686Z,0.65
2022-08-03T16:44:55.256Z,0.70
2022-08-03T16:47:22.766Z,0.88
2022-08-03T16:49:54.747Z,0.80
2022-08-03T16:52:23.459Z,0.70
2022-08-03T16:54:50.673Z,0.75
2022-08-03T16:57:58.475Z,0.90
2022-08-03T17:00:10.522Z,1.30
2022-08-03T17:02:37.461Z,0.70
2022-08-03T17:05:04.514Z,0.98
2022-08-03T17:07:31.041Z,0.60
2022-08-03T17:09:58.075Z,1.20
2022-08-03T17:12:27.082Z,0.80
2022-08-03T17:14:54.335Z,0.95
2022-08-03T17:17:53.358Z,0.65
2022-08-03T17:20:19.124Z,0.95
2022-08-03T17:22:58.475Z,1.00
2022-08-03T17:25:39.733Z,0.75
2022-08-03T17:28:48.435Z,0.68
2022-08-03T17:31:23.122Z,0.80
2022-08-03T17:34:00.490Z,0.77
2022-08-03T17:36:47.595Z,0.82
2022-08-03T17:39:30.793Z,0.55
2022-08-03T17:42:05.313Z,0.98
2022-08-03T17:44:52.536Z,0.70
2022-08-03T17:47:19.957Z,0.82
2022-08-03T17:49:48.193Z,0.70
2022-08-03T17:52:24.540Z,0.90
2022-08-03T17:55:56.580Z,0.60
2022-08-03T17:58:02.256Z,0.80
2022-08-03T18:00:51.591Z,0.98
2022-08-03T18:03:29.242Z,0.80
2022-08-03T18:06:10.766Z,0.90
2022-08-03T18:08:45.192Z,0.60
2022-08-03T18:11:15.210Z,0.82
2022-08-03T18:14:16.060Z,0.77
2022-08-03T18:17:06.505Z,0.73
2022-08-03T18:20:03.399Z,0.70
2022-08-03T18:22:26.934Z,0.68
2022-08-03T18:24:54.705Z,0.95
2022-08-03T18:27:22.865Z,0.65
2022-08-03T18:29:50.296Z,1.00
2022-08-03T18:32:18.368Z,1.33
2022-08-03T18:34:53.652Z,0.82
2022-08-03T18:37:25.281Z,0.90
2022-08-03T18:40:11.754Z,0.90
2022-08-03T18:42:52.950Z,0.82
2022-08-03T18:45:56.505Z,1.08
2022-08-03T18:48:11.644Z,0.65
2022-08-03T18:50:41.043Z,0.63
2022-08-03T18:53:23.468Z,0.52
2022-08-03T18:56:34.414Z,0.98
2022-08-03T18:59:32.385Z,0.80
2022-08-03T19:02:09.202Z,0.68
2022-08-03T19:04:41.102Z,0.85
2022-08-03T19:07:09.529Z,0.88
2022-08-03T19:09:47.710Z,0.80
2022-08-03T19:12:27.258Z,0.70
2022-08-03T19:15:10.608Z,0.70
2022-08-03T19:17:50.298Z,0.93
2022-08-03T19:20:30.848Z,0.95
2022-08-03T19:22:59.409Z,1.13
2022-08-03T19:25:35.240Z,1.13
2022-08-03T19:28:14.504Z,0.82
2022-08-03T19:30:46.306Z,0.77
2022-08-03T19:33:31.430Z,0.82
2022-08-03T19:36:18.105Z,0.75
2022-08-03T19:38:54.709Z,0.95
2022-08-03T19:41:24.566Z,0.90
2022-08-03T19:44:00.903Z,1.00
2022-08-03T19:46:34.795Z,0.73
2022-08-03T19:49:15.054Z,1.23
2022-08-03T19:51:58.480Z,0.98
2022-08-03T19:54:36.704Z,0.85
2022-08-03T19:57:17.586Z,1.30
2022-08-03T19:59:50.105Z,1.25
2022-08-03T20:02:26.265Z,1.45
2022-08-03T20:04:58.008Z,1.08
2022-08-03T20:07:28.514Z,1.10
2022-08-03T20:09:56.506Z,1.10
2022-08-03T20:12:26.643Z,1.05
2022-08-03T20:14:58.644Z,1.25
2022-08-03T20:17:54.728Z,1.30
2022-08-03T20:20:13.629Z,1.02
2022-08-03T20:22:45.502Z,1.50
2022-08-03T20:25:13.175Z,1.10
2022-08-03T20:28:05.823Z,1.20
2022-08-03T20:30:35.193Z,1.10
2022-08-03T20:33:01.790Z,1.02
2022-08-03T20:35:28.931Z,1.20
2022-08-03T20:37:55.915Z,0.80
2022-08-03T20:40:27.370Z,1.10
2022-08-03T20:42:55.302Z,1.25
2022-08-03T20:45:59.187Z,1.00
2022-08-03T20:48:09.897Z,1.00
2022-08-03T20:50:38.373Z,1.20
2022-08-03T20:53:06.935Z,1.15
2022-08-03T20:55:47.740Z,1.02
2022-08-03T20:58:21.199Z,0.90
2022-08-03T21:00:51.569Z,0.90
2022-08-03T21:03:18.889Z,1.10
2022-08-03T21:05:48.447Z,1.08
2022-08-03T21:08:21.529Z,1.20
2022-08-03T21:10:49.310Z,1.10
2022-08-03T21:13:23.587Z,1.00
2022-08-03T21:16:03.209Z,1.13
2022-08-03T21:18:50.776Z,1.42
2022-08-03T21:21:22.970Z,1.20
2022-08-03T21:23:52.930Z,1.30
2022-08-03T21:26:22.729Z,1.20
2022-08-03T21:28:51.820Z,1.05
2022-08-03T21:31:25.449Z,1.20
2022-08-03T21:33:57.852Z,1.42
2022-08-03T21:36:29.471Z,1.38
2022-08-03T21:38:57.397Z,1.05
2022-08-03T21:41:31.435Z,0.68
2022-08-03T21:43:58.837Z,1.48
2022-08-03T21:46:27.319Z,1.20
2022-08-03T21:50:04.434Z,0.95
2022-08-03T21:51:49.525Z,1.25
2022-08-03T21:54:20.517Z,1.00
2022-08-03T21:56:48.121Z,1.23
2022-08-03T21:59:19.775Z,1.45
2022-08-03T22:01:49.118Z,1.10
2022-08-03T22:04:50.651Z,1.02
2022-08-03T22:07:08.067Z,1.00
2022-08-03T22:09:36.290Z,1.20
2022-08-03T22:12:03.477Z,1.15
2022-08-03T22:14:31.646Z,1.20
2022-08-03T22:16:58.263Z,1.00
2022-08-03T22:19:24.927Z,0.82
2022-08-03T22:21:51.552Z,1.30
2022-08-03T22:24:19.685Z,1.10
2022-08-03T22:27:09.737Z,1.10
2022-08-03T22:29:36.868Z,1.00
2022-08-03T22:32:04.080Z,1.25
2022-08-03T22:34:30.736Z,1.50
2022-08-03T22:37:02.061Z,1.30
2022-08-03T22:39:29.755Z,1.08
2022-08-03T22:41:59.800Z,1.50
2022-08-03T22:44:27.536Z,1.15
2022-08-03T22:46:54.563Z,0.93
2022-08-03T22:49:22.258Z,1.25
2022-08-03T22:51:50.867Z,0.82
2022-08-03T22:54:17.944Z,1.20
2022-08-03T22:56:46.739Z,0.90
2022-08-03T22:59:39.277Z,1.33
2022-08-03T23:02:19.979Z,1.50
2022-08-03T23:04:51.980Z,1.10
2022-08-03T23:07:36.429Z,1.23
2022-08-03T23:10:06.476Z,1.10
2022-08-03T23:12:35.473Z,1.23
2022-08-03T23:15:05.307Z,1.30
2022-08-03T23:17:33.121Z,1.20
2022-08-03T23:20:06.333Z,1.30
2022-08-03T23:22:39.118Z,1.10
2022-08-03T23:25:10.155Z,1.20
2022-08-03T23:27:39.972Z,1.52
2022-08-03T23:30:07.140Z,1.42
2022-08-03T23:32:33.797Z,1.20
2022-08-03T23:35:21.815Z,1.45
2022-08-03T23:38:04.797Z,1.42
2022-08-03T23:40:38.899Z,1.35
2022-08-03T23:43:05.675Z,1.50
2022-08-03T23:45:34.803Z,2.00
2022-08-03T23:48:01.406Z,1.33
2022-08-03T23:50:31.198Z,1.50
2022-08-03T23:53:10.675Z,1.40
2022-08-03T23:56:13.858Z,1.00
2022-08-03T23:59:00.098Z,1.40
